createdAt,value
2023-11-23T05:42:15.510Z,39.53
2023-11-23T05:45:19.996Z,41.72
2023-11-23T05:48:22.689Z,30.97
2023-11-23T05:51:25.313Z,30.85
2023-11-23T05:54:27.954Z,27.08
2023-11-23T05:57:30.541Z,30.73
2023-11-23T06:00:33.156Z,35.63
2023-11-23T06:03:35.894Z,34.40
2023-11-23T06:06:38.469Z,31.73
2023-11-23T06:09:40.983Z,28.60
2023-11-23T06:12:43.500Z,37.03
2023-11-23T06:15:46.481Z,33.72
2023-11-23T06:18:49.239Z,31.70
2023-11-23T06:21:51.807Z,38.47
2023-11-23T06:24:54.357Z,44.15
2023-11-23T06:28:08.436Z,55.35
2023-11-23T06:31:18.671Z,75.53
2023-11-23T06:34:21.209Z,61.93
2023-11-23T06:37:23.727Z,51.58
2023-11-23T06:40:26.244Z,38.38
2023-11-23T06:43:28.805Z,32.80
2023-11-23T06:46:31.421Z,32.47
2023-11-23T06:49:34.083Z,34.13
2023-11-23T06:52:36.593Z,31.52
2023-11-23T06:55:39.093Z,30.65
2023-11-23T06:58:47.639Z,27.37
2023-11-23T07:01:50.389Z,27.70
2023-11-23T07:04:53.093Z,26.80
2023-11-23T07:07:56.470Z,31.48
2023-11-23T07:11:00.444Z,34.78
2023-11-23T07:14:03.049Z,33.45
2023-11-23T07:17:05.626Z,27.30
2023-11-23T07:20:08.673Z,32.90
2023-11-23T07:23:11.957Z,33.78
2023-11-23T07:26:14.458Z,40.72
2023-11-23T07:29:17.001Z,37.05
2023-11-23T07:32:19.442Z,31.95
2023-11-23T07:35:21.986Z,46.20
2023-11-23T07:38:24.511Z,41.05
2023-11-23T07:41:27.161Z,35.17
2023-11-23T07:44:29.660Z,26.40
2023-11-23T07:47:32.568Z,34.47
2023-11-23T07:50:35.137Z,28.45
2023-11-23T07:53:37.639Z,29.25
2023-11-23T07:56:42.293Z,36.13
2023-11-23T07:59:44.832Z,39.13
2023-11-23T08:02:47.971Z,34.95
2023-11-23T08:05:50.615Z,30.85
2023-11-23T08:08:53.877Z,30.80
2023-11-23T08:11:57.498Z,33.03
2023-11-23T08:15:00.535Z,32.65
2023-11-23T08:18:07.920Z,29.42
2023-11-23T08:21:12.524Z,38.30
2023-11-23T08:24:16.365Z,35.35
2023-11-23T08:27:18.981Z,37.67
2023-11-23T08:30:23.565Z,32.88
2023-11-23T08:33:26.778Z,34.50
2023-11-23T08:36:29.391Z,31.08
2023-11-23T08:39:32.039Z,31.17
2023-11-23T08:42:34.821Z,30.65
2023-11-23T08:45:37.384Z,36.85
2023-11-23T08:48:41.087Z,34.50
2023-11-23T08:51:43.758Z,32.33
2023-11-23T08:54:46.261Z,31.67
2023-11-23T08:57:52.264Z,35.28
2023-11-23T09:00:55.070Z,32.83
2023-11-23T09:03:58.237Z,32.72
2023-11-23T09:07:00.881Z,31.65
2023-11-23T09:10:03.718Z,28.87
2023-11-23T09:13:06.513Z,34.67
2023-11-23T09:16:09.390Z,29.40
2023-11-23T09:19:14.552Z,23.17
2023-11-23T09:25:19.787Z,29.92
2023-11-23T09:28:23.509Z,35.97
2023-11-23T09:31:31.320Z,33.13
2023-11-23T09:34:34.694Z,29.90
2023-11-23T09:37:38.438Z,31.20
2023-11-23T09:40:42.127Z,38.00
2023-11-23T09:43:45.184Z,33.35
2023-11-23T09:46:49.493Z,30.80
2023-11-23T09:49:53.910Z,39.10
2023-11-23T09:53:27.904Z,28.48
2023-11-23T09:56:33.413Z,26.58
2023-11-23T09:59:37.166Z,29.10
2023-11-23T10:02:40.053Z,30.73
2023-11-23T10:05:42.616Z,26.92
2023-11-23T10:08:45.171Z,33.13
2023-11-23T10:11:48.294Z,30.33
2023-11-23T10:14:54.033Z,28.38
2023-11-23T10:17:57.804Z,23.62
2023-11-23T10:21:00.384Z,28.08
2023-11-23T10:24:09.374Z,30.15
2023-11-23T10:27:12.090Z,28.80
2023-11-23T10:30:14.985Z,27.55
2023-11-23T10:33:17.672Z,35.03
2023-11-23T10:36:22.419Z,27.85
2023-11-23T10:39:25.089Z,27.98
2023-11-23T10:42:27.773Z,30.88
2023-11-23T10:45:33.744Z,26.42
2023-11-23T10:48:38.792Z,29.70
2023-11-23T10:51:42.821Z,29.87
2023-11-23T10:54:45.466Z,27.37
2023-11-23T10:57:57.628Z,29.73
2023-11-23T11:01:03.870Z,25.27
2023-11-23T11:04:07.145Z,35.83
2023-11-23T11:07:11.861Z,30.40
2023-11-23T11:10:15.344Z,36.00
2023-11-23T11:13:20.015Z,31.48
2023-11-23T11:16:23.756Z,33.78
2023-11-23T11:19:27.821Z,26.50
2023-11-23T11:22:32.293Z,28.92
2023-11-23T11:25:41.350Z,30.07
2023-11-23T11:28:44.137Z,30.45
2023-11-23T11:31:49.770Z,26.52
2023-11-23T11:35:00.887Z,26.00
2023-11-23T11:38:04.304Z,26.80
2023-11-23T11:41:08.960Z,26.70
2023-11-23T11:44:14.704Z,22.25
2023-11-23T11:47:18.392Z,25.08
2023-11-23T11:50:21.889Z,26.37
2023-11-23T11:53:24.587Z,18.15
2023-11-23T11:56:27.410Z,19.85
2023-11-23T11:59:31.462Z,20.02
2023-11-23T12:02:34.142Z,19.50
2023-11-23T12:05:40.998Z,20.33
2023-11-23T12:08:44.382Z,26.67
2023-11-23T12:11:47.286Z,21.27
2023-11-23T12:14:49.887Z,20.05
2023-11-23T12:17:54.916Z,22.30
2023-11-23T12:24:01.503Z,19.55
2023-11-23T12:27:04.513Z,18.25
2023-11-23T12:30:07.713Z,20.33
2023-11-23T12:33:10.280Z,20.33
2023-11-23T12:36:13.889Z,22.70
2023-11-23T12:39:16.968Z,23.10
2023-11-23T12:42:19.625Z,24.42
2023-11-23T12:45:23.198Z,21.67
2023-11-23T12:48:27.542Z,21.80
2023-11-23T12:51:30.246Z,20.48
2023-11-23T12:54:34.407Z,20.73
2023-11-23T12:57:38.867Z,21.73
2023-11-23T13:00:43.140Z,18.08
2023-11-23T13:03:47.164Z,20.67
2023-11-23T13:06:49.881Z,18.52
2023-11-23T13:09:52.878Z,21.23
2023-11-23T13:12:59.268Z,19.15
2023-11-23T13:16:02.809Z,29.92
2023-11-23T13:19:21.499Z,19.70
2023-11-23T13:22:32.308Z,46.75
2023-11-23T13:25:38.746Z,21.20
2023-11-23T13:28:50.072Z,20.02
2023-11-23T13:31:59.334Z,21.52
2023-11-23T13:35:04.148Z,21.00
2023-11-23T13:38:07.096Z,20.90
2023-11-23T13:41:11.873Z,21.40
2023-11-23T14:11:09.986Z,22.15
2023-11-23T14:14:13.071Z,28.25
2023-11-23T14:17:53.441Z,27.00
2023-11-23T14:20:56.314Z,28.85
2023-11-23T14:24:36.527Z,24.92
2023-11-23T14:28:17.333Z,29.58
2023-11-23T14:31:24.225Z,39.92
2023-11-23T14:34:29.308Z,31.83
2023-11-23T14:37:33.173Z,33.97
2023-11-23T14:40:37.272Z,27.60
2023-11-23T14:43:40.702Z,33.63
2023-11-23T14:46:50.737Z,38.58
2023-11-23T14:49:54.059Z,24.95
2023-11-23T14:52:57.969Z,28.50
2023-11-23T14:56:01.979Z,32.65
2023-11-23T14:59:07.513Z,35.60
2023-11-23T15:02:10.359Z,44.15
2023-11-23T15:05:14.156Z,52.83
2023-11-23T15:08:17.812Z,57.03
2023-11-23T15:11:20.609Z,74.47
2023-11-23T15:14:23.248Z,55.30
2023-11-23T15:17:27.112Z,58.78
2023-11-23T15:20:31.821Z,40.28
2023-11-23T15:23:35.756Z,46.63
2023-11-23T15:26:39.600Z,38.83
2023-11-23T15:29:44.620Z,36.60
2023-11-23T15:32:47.315Z,46.47
2023-11-23T15:35:50.466Z,34.88
2023-11-23T15:38:53.053Z,53.00
2023-11-23T15:41:55.706Z,46.63
2023-11-23T15:44:58.208Z,51.67
2023-11-23T15:48:00.928Z,45.22
